Time;durP1;ratioP1;P1;durP2;ratioP2;P2;SDS_P1;SDS_P2;PMS_P1;PMS_P2;Temp;Humidity;BMP_temperature;BMP_pressure;BME280_temperature;BME280_humidity;BME280_pressure;Samples;Min_cycle;Max_cycle;Signal;HPM_P1;HPM_P2
2021/06/12 00:01:30;;;;;;;2.78;2.58;;;19.60;99.90;;;;;;4953733;28;20208;-66
2021/06/12 00:03:56;;;;;;;2.13;2.03;;;19.50;99.90;;;;;;4962224;28;20695;-67
2021/06/12 00:06:24;;;;;;;2.10;2.00;;;19.50;99.90;;;;;;4989513;28;20589;-67
2021/06/12 00:08:50;;;;;;;2.30;2.20;;;19.50;99.90;;;;;;4990029;28;20199;-67
2021/06/12 00:11:17;;;;;;;2.47;2.38;;;19.50;99.90;;;;;;4978573;28;20469;-67
2021/06/12 00:13:43;;;;;;;2.90;2.70;;;19.40;99.90;;;;;;4977018;28;20232;-66
2021/06/12 00:16:10;;;;;;;2.20;2.10;;;19.40;99.90;;;;;;4971856;28;20221;-67
2021/06/12 00:18:36;;;;;;;2.53;2.40;;;19.40;99.90;;;;;;4975934;28;20208;-67
2021/06/12 00:21:03;;;;;;;2.38;2.28;;;19.40;99.90;;;;;;4971445;28;20204;-67
2021/06/12 00:23:31;;;;;;;2.35;2.17;;;19.40;99.90;;;;;;4971309;28;20203;-67
2021/06/12 00:25:58;;;;;;;2.13;2.00;;;19.30;99.90;;;;;;4953200;28;20231;-67
2021/06/12 00:28:26;;;;;;;2.17;2.08;;;19.30;99.90;;;;;;4970888;28;20228;-67
2021/06/12 00:30:52;;;;;;;2.03;1.92;;;19.20;99.90;;;;;;4953109;28;20205;-66
2021/06/12 00:33:19;;;;;;;1.98;1.88;;;19.20;99.90;;;;;;4970744;28;20233;-67
2021/06/12 00:35:45;;;;;;;1.70;1.60;;;19.20;99.90;;;;;;4970059;28;20193;-66
2021/06/12 00:38:13;;;;;;;2.10;2.00;;;19.20;99.90;;;;;;4958217;28;20235;-66
2021/06/12 00:40:41;;;;;;;2.00;1.90;;;19.20;99.90;;;;;;4970638;28;20563;-67
2021/06/12 00:43:08;;;;;;;3.40;2.20;;;19.20;99.90;;;;;;4971919;28;20204;-66
2021/06/12 00:45:36;;;;;;;2.00;1.90;;;19.20;99.90;;;;;;4986839;28;20239;-66
2021/06/12 00:48:02;;;;;;;2.70;1.88;;;19.20;99.90;;;;;;4982369;28;20228;-68
2021/06/12 00:50:31;;;;;;;2.22;2.10;;;19.20;99.90;;;;;;4979354;28;20683;-67
2021/06/12 00:52:57;;;;;;;1.88;1.77;;;19.10;99.90;;;;;;4987165;28;20217;-67
2021/06/12 00:55:25;;;;;;;2.00;1.90;;;19.10;99.90;;;;;;4980409;28;20207;-67
2021/06/12 00:57:53;;;;;;;1.90;1.80;;;19.10;99.90;;;;;;4970125;28;20212;-67
2021/06/12 01:00:22;;;;;;;2.75;2.00;;;19.10;99.90;;;;;;4971165;28;20272;-67
2021/06/12 01:02:49;;;;;;;2.20;2.00;;;19.00;99.90;;;;;;4957878;28;20615;-66
2021/06/12 01:05:18;;;;;;;1.88;1.77;;;19.00;99.90;;;;;;4942658;28;20212;-67
2021/06/12 01:07:45;;;;;;;1.98;1.88;;;19.00;99.90;;;;;;4970256;28;20287;-66
2021/06/12 01:10:14;;;;;;;1.83;1.73;;;19.00;99.90;;;;;;4970971;28;20678;-67
2021/06/12 01:12:52;;;;;;;1.92;1.83;;;19.00;99.90;;;;;;4969912;28;20219;-67
2021/06/12 01:15:22;;;;;;;2.17;1.92;;;19.00;99.90;;;;;;4976088;28;20215;-67
2021/06/12 01:17:56;;;;;;;1.90;1.80;;;19.00;99.90;;;;;;4963601;28;20255;-67
2021/06/12 01:20:44;;;;;;;2.00;1.90;;;19.00;99.90;;;;;;4975150;28;20286;-67
2021/06/12 01:23:52;;;;;;;2.00;1.90;;;19.00;99.90;;;;;;4970716;28;20196;-67
2021/06/12 01:26:34;;;;;;;1.55;1.45;;;18.90;99.90;;;;;;4961085;28;20238;-67
2021/06/12 01:29:10;;;;;;;1.77;1.67;;;19.00;99.90;;;;;;4982750;28;20668;-68
2021/06/12 01:31:39;;;;;;;1.60;1.50;;;18.90;99.90;;;;;;4969236;28;20204;-66
2021/06/12 01:34:07;;;;;;;1.83;1.58;;;18.90;99.90;;;;;;4969640;28;20572;-67
2021/06/12 01:36:34;;;;;;;2.03;1.92;;;18.90;99.90;;;;;;4980157;28;20202;-67
2021/06/12 01:39:03;;;;;;;2.10;1.90;;;18.90;99.90;;;;;;4979770;28;20280;-67
2021/06/12 01:41:32;;;;;;;2.80;1.97;;;18.80;99.90;;;;;;4949493;28;20648;-67
2021/06/12 01:44:01;;;;;;;2.60;2.40;;;18.80;99.90;;;;;;4952530;28;20209;-67
2021/06/12 01:46:29;;;;;;;2.65;2.45;;;18.80;99.90;;;;;;4968519;28;20233;-66
2021/06/12 01:48:59;;;;;;;3.10;2.80;;;18.80;99.90;;;;;;4968830;28;20665;-66
2021/06/12 01:51:26;;;;;;;2.50;2.40;;;18.80;99.90;;;;;;4965217;28;20294;-67
2021/06/12 01:53:55;;;;;;;2.58;2.38;;;18.80;99.90;;;;;;4959941;28;20227;-67
2021/06/12 01:56:25;;;;;;;2.03;1.92;;;18.80;99.90;;;;;;4985784;28;20670;-66
2021/06/12 01:58:53;;;;;;;1.98;1.80;;;18.70;99.90;;;;;;4985824;28;20278;-66
2021/06/12 02:01:22;;;;;;;1.90;1.80;;;18.70;99.90;;;;;;4980400;28;20205;-66
2021/06/12 02:03:50;;;;;;;1.90;1.80;;;18.70;99.90;;;;;;4976862;28;20232;-66
2021/06/12 02:06:18;;;;;;;1.95;1.70;;;18.70;99.90;;;;;;4992859;28;20226;-66
2021/06/12 02:08:46;;;;;;;2.45;1.73;;;18.70;99.90;;;;;;4975293;28;20583;-66
2021/06/12 02:11:14;;;;;;;1.73;1.63;;;18.70;99.90;;;;;;4993275;28;20204;-66
2021/06/12 02:13:42;;;;;;;1.42;1.42;;;18.70;99.90;;;;;;4955891;28;20243;-65
2021/06/12 02:16:08;;;;;;;1.48;1.42;;;18.70;99.90;;;;;;4974128;28;20211;-67
2021/06/12 02:18:37;;;;;;;1.70;1.30;;;18.70;99.90;;;;;;4991792;28;20301;-67
2021/06/12 02:21:05;;;;;;;1.77;1.67;;;18.70;99.90;;;;;;4978379;28;20704;-67
2021/06/12 02:23:34;;;;;;;1.30;1.17;;;18.70;99.90;;;;;;4976802;28;20282;-67
2021/06/12 02:26:00;;;;;;;1.20;1.20;;;18.70;99.90;;;;;;4979126;28;20783;-67
2021/06/12 02:28:34;;;;;;;1.25;1.23;;;18.80;99.90;;;;;;4972740;28;20209;-67
2021/06/12 02:31:03;;;;;;;1.50;1.40;;;18.80;99.90;;;;;;4986417;28;20219;-66
2021/06/12 02:33:31;;;;;;;1.70;1.60;;;18.80;99.90;;;;;;4963732;28;20705;-67
2021/06/12 02:36:01;;;;;;;1.48;1.38;;;18.80;99.90;;;;;;4967251;28;20215;-67
2021/06/12 02:38:28;;;;;;;1.50;1.40;;;18.80;99.90;;;;;;4977972;28;20260;-66
2021/06/12 02:40:56;;;;;;;1.50;1.40;;;18.80;99.90;;;;;;4975771;28;20605;-66
2021/06/12 02:43:23;;;;;;;1.20;1.20;;;18.80;99.90;;;;;;4992381;28;20235;-66
2021/06/12 02:45:50;;;;;;;1.23;1.23;;;18.80;99.90;;;;;;4978514;28;20207;-66
2021/06/12 02:48:17;;;;;;;1.30;1.30;;;18.80;99.90;;;;;;4991346;28;20214;-68
2021/06/12 02:50:46;;;;;;;1.30;1.20;;;18.80;99.90;;;;;;4988294;28;20638;-66
2021/06/12 02:53:15;;;;;;;1.20;1.20;;;18.90;99.90;;;;;;4955626;28;20238;-67
2021/06/12 02:55:43;;;;;;;1.45;1.35;;;18.90;99.90;;;;;;4972691;28;20295;-67
2021/06/12 02:58:14;;;;;;;1.30;1.30;;;18.90;99.90;;;;;;4954873;28;20678;-66
2021/06/12 03:00:43;;;;;;;1.47;1.37;;;18.90;99.90;;;;;;4971792;28;20214;-66
2021/06/12 03:03:13;;;;;;;1.13;1.13;;;18.90;99.90;;;;;;4969009;28;20196;-67
2021/06/12 03:05:43;;;;;;;1.20;1.20;;;19.00;99.90;;;;;;4984468;28;20197;-67
2021/06/12 03:08:13;;;;;;;1.40;1.30;;;19.00;99.90;;;;;;4954599;28;20741;-67
2021/06/12 03:10:41;;;;;;;1.10;1.10;;;19.00;99.90;;;;;;4960114;28;20208;-66
2021/06/12 03:13:13;;;;;;;1.27;1.27;;;19.10;99.90;;;;;;4970570;28;20254;-65
2021/06/12 03:15:43;;;;;;;1.40;1.40;;;19.10;99.90;;;;;;4975645;28;20222;-67
2021/06/12 03:18:11;;;;;;;1.27;1.25;;;19.20;99.90;;;;;;4975936;28;20212;-67
2021/06/12 03:20:38;;;;;;;1.30;1.30;;;19.20;99.90;;;;;;4954795;28;20255;-66
2021/06/12 03:23:07;;;;;;;1.20;1.20;;;19.20;99.90;;;;;;4955046;28;20717;-66
2021/06/12 03:25:34;;;;;;;2.55;1.75;;;19.20;99.90;;;;;;4972683;28;20192;-67
2021/06/12 03:28:00;;;;;;;1.33;1.23;;;19.30;99.90;;;;;;4971655;28;20279;-67
2021/06/12 03:30:29;;;;;;;1.92;1.33;;;19.30;99.90;;;;;;4971463;28;20208;-67
2021/06/12 03:32:56;;;;;;;1.50;1.40;;;19.30;99.90;;;;;;4971332;28;20228;-66
2021/06/12 03:35:26;;;;;;;1.10;1.10;;;19.30;99.90;;;;;;4964876;28;20225;-66
2021/06/12 03:37:54;;;;;;;2.25;1.40;;;19.40;99.90;;;;;;4957933;28;20594;-67
2021/06/12 03:40:21;;;;;;;1.50;1.40;;;19.40;99.90;;;;;;4952562;29;20213;-67
2021/06/12 03:42:48;;;;;;;1.02;1.02;;;19.40;99.90;;;;;;4952262;29;20197;-66
2021/06/12 03:45:16;;;;;;;1.40;1.30;;;19.50;99.90;;;;;;4956627;28;20208;-66
2021/06/12 03:47:45;;;;;;;1.25;1.25;;;19.50;99.90;;;;;;4966578;28;20235;-66
2021/06/12 03:50:12;;;;;;;1.25;1.25;;;19.60;99.90;;;;;;4959160;28;20216;-66
2021/06/12 03:52:40;;;;;;;1.25;1.25;;;19.60;99.90;;;;;;4935544;29;20224;-66
2021/06/12 03:55:09;;;;;;;1.30;1.30;;;19.70;99.90;;;;;;4955985;28;20674;-66
2021/06/12 03:57:37;;;;;;;1.20;1.20;;;19.70;99.90;;;;;;4939324;29;20229;-66
2021/06/12 04:00:07;;;;;;;2.03;1.48;;;19.80;99.90;;;;;;4950906;29;20201;-67
2021/06/12 04:02:38;;;;;;;1.52;1.42;;;19.80;99.90;;;;;;4952019;29;20227;-67
2021/06/12 04:05:08;;;;;;;1.10;1.10;;;19.90;99.90;;;;;;4934786;29;20239;-67
2021/06/12 04:07:36;;;;;;;1.20;1.20;;;19.90;99.90;;;;;;4952190;29;20753;-67
2021/06/12 04:10:03;;;;;;;1.33;1.23;;;20.00;99.90;;;;;;4952068;29;20644;-67
2021/06/12 04:12:30;;;;;;;1.20;1.20;;;20.10;99.90;;;;;;4950189;29;20276;-67
2021/06/12 04:14:57;;;;;;;1.27;1.20;;;20.20;99.90;;;;;;4951975;28;20206;-67
2021/06/12 04:17:23;;;;;;;1.13;1.13;;;20.20;99.90;;;;;;4950898;29;20231;-67
2021/06/12 04:19:50;;;;;;;1.45;1.35;;;20.30;99.90;;;;;;4934149;29;20205;-66
2021/06/12 04:22:18;;;;;;;1.50;1.40;;;20.40;99.90;;;;;;4951923;28;20204;-65
2021/06/12 04:24:44;;;;;;;1.13;1.13;;;20.40;99.90;;;;;;4960497;28;20291;-67
2021/06/12 04:27:11;;;;;;;1.40;1.30;;;20.50;99.90;;;;;;4951687;28;20644;-67
2021/06/12 04:29:37;;;;;;;1.17;1.17;;;20.50;99.90;;;;;;4965724;28;20208;-67
2021/06/12 04:32:04;;;;;;;1.13;1.08;;;20.60;99.90;;;;;;4970206;28;20279;-67
2021/06/12 04:34:31;;;;;;;1.20;1.20;;;20.60;99.90;;;;;;4968401;28;20706;-67
2021/06/12 04:36:59;;;;;;;1.15;1.15;;;20.60;99.90;;;;;;4927481;28;20243;-66
2021/06/12 04:39:27;;;;;;;1.50;1.40;;;20.70;99.90;;;;;;4957743;28;20200;-66
2021/06/12 04:41:56;;;;;;;1.40;1.30;;;20.70;99.90;;;;;;4959382;28;20197;-67
2021/06/12 04:44:23;;;;;;;1.40;1.30;;;20.70;99.90;;;;;;4989219;28;20211;-67
2021/06/12 04:46:49;;;;;;;1.73;1.30;;;20.80;99.90;;;;;;4982250;28;20904;-66
2021/06/12 04:49:16;;;;;;;2.13;1.13;;;20.80;99.90;;;;;;4988341;28;20210;-66
2021/06/12 04:51:42;;;;;;;1.30;1.30;;;20.90;99.90;;;;;;4987121;28;20323;-67
2021/06/12 04:54:09;;;;;;;1.40;1.40;;;21.00;99.90;;;;;;4971443;28;20216;-67
2021/06/12 04:56:38;;;;;;;1.25;1.23;;;21.00;99.90;;;;;;4970573;28;20678;-67
2021/06/12 04:59:04;;;;;;;2.25;1.00;;;21.10;99.90;;;;;;4954719;28;20210;-66
2021/06/12 05:01:31;;;;;;;0.95;0.95;;;21.20;99.90;;;;;;4981896;28;20196;-66
2021/06/12 05:03:57;;;;;;;1.15;1.15;;;21.30;99.90;;;;;;4984218;28;20188;-67
2021/06/12 05:06:24;;;;;;;1.33;1.33;;;21.30;99.90;;;;;;4990127;28;20215;-66
2021/06/12 05:08:50;;;;;;;1.02;1.02;;;21.30;99.90;;;;;;4963548;28;20273;-67
2021/06/12 05:11:17;;;;;;;1.13;1.10;;;21.40;99.90;;;;;;4989550;28;20203;-66
2021/06/12 05:13:45;;;;;;;1.08;1.08;;;21.50;99.90;;;;;;4972080;28;20325;-67
2021/06/12 05:16:11;;;;;;;1.67;1.00;;;21.60;99.90;;;;;;4989356;28;20207;-67
2021/06/12 05:18:40;;;;;;;1.10;1.10;;;21.60;99.90;;;;;;4988838;28;20283;-66
2021/06/12 05:21:08;;;;;;;1.75;1.65;;;21.60;99.90;;;;;;4988523;28;20834;-66
2021/06/12 05:23:35;;;;;;;1.67;1.58;;;21.60;99.90;;;;;;4989542;28;20668;-67
2021/06/12 05:26:04;;;;;;;1.50;1.40;;;21.60;99.90;;;;;;4989890;28;20192;-66
2021/06/12 05:28:30;;;;;;;1.40;1.40;;;21.60;99.90;;;;;;4971886;28;20231;-67
2021/06/12 05:30:58;;;;;;;1.58;1.42;;;21.60;99.90;;;;;;4988286;28;20196;-68
2021/06/12 05:33:26;;;;;;;1.40;1.40;;;21.70;99.90;;;;;;4983072;28;20750;-67
2021/06/12 05:35:55;;;;;;;1.63;1.55;;;21.70;99.90;;;;;;4963870;28;20212;-67
2021/06/12 05:38:22;;;;;;;2.38;1.30;;;21.80;99.90;;;;;;4965434;28;20348;-67
2021/06/12 05:40:49;;;;;;;1.10;1.10;;;21.90;99.90;;;;;;4969563;28;20203;-68
2021/06/12 05:43:15;;;;;;;1.00;1.00;;;22.00;99.90;;;;;;4969552;28;20271;-68
2021/06/12 05:45:43;;;;;;;1.20;1.20;;;22.00;99.90;;;;;;4968985;28;20238;-67
2021/06/12 05:48:11;;;;;;;1.35;1.27;;;22.10;99.90;;;;;;4979091;28;20200;-67
2021/06/12 05:50:38;;;;;;;5.82;1.63;;;22.10;99.90;;;;;;4987799;28;20290;-67
2021/06/12 05:53:04;;;;;;;1.30;1.30;;;22.20;99.90;;;;;;4970143;28;20224;-67
2021/06/12 05:55:31;;;;;;;1.20;1.20;;;22.40;99.90;;;;;;4970501;28;20220;-67
2021/06/12 05:57:57;;;;;;;2.70;1.67;;;22.50;99.90;;;;;;4981902;28;20785;-65
2021/06/12 06:00:28;;;;;;;1.48;1.40;;;22.60;99.90;;;;;;4951598;28;20226;-67
2021/06/12 06:02:55;;;;;;;2.85;1.90;;;22.70;99.90;;;;;;4969315;28;20220;-66
2021/06/12 06:05:22;;;;;;;2.58;1.70;;;22.80;99.90;;;;;;4964886;28;20212;-67
2021/06/12 06:07:49;;;;;;;1.40;1.30;;;23.10;99.90;;;;;;4970262;28;20252;-69
2021/06/12 06:10:16;;;;;;;1.50;1.40;;;23.40;99.90;;;;;;4964716;28;20290;-67
2021/06/12 06:12:42;;;;;;;1.75;1.65;;;23.50;99.90;;;;;;4977281;28;20287;-66
2021/06/12 06:15:11;;;;;;;1.45;1.35;;;23.70;99.90;;;;;;4986018;28;20270;-66
2021/06/12 06:17:38;;;;;;;1.60;1.45;;;23.70;99.90;;;;;;4977994;28;20618;-66
2021/06/12 06:20:06;;;;;;;1.48;1.20;;;23.70;99.90;;;;;;4972726;28;22205;-67
2021/06/12 06:22:34;;;;;;;1.85;1.27;;;23.70;99.90;;;;;;4969966;28;20288;-67
2021/06/12 06:25:01;;;;;;;1.50;1.40;;;23.70;99.90;;;;;;4969931;28;20205;-67
2021/06/12 06:27:28;;;;;;;1.38;1.20;;;23.80;99.90;;;;;;4969661;28;20630;-67
2021/06/12 06:29:57;;;;;;;1.50;1.40;;;23.90;99.90;;;;;;4969254;28;20200;-67
2021/06/12 06:32:23;;;;;;;1.63;1.40;;;24.10;99.90;;;;;;4968429;28;20385;-67
2021/06/12 06:34:50;;;;;;;1.40;1.40;;;24.30;99.90;;;;;;4980047;28;20208;-68
2021/06/12 06:37:16;;;;;;;1.50;1.48;;;24.30;99.90;;;;;;4960528;28;20236;-67
2021/06/12 06:39:44;;;;;;;1.27;1.17;;;24.30;99.90;;;;;;4968347;28;20260;-66
2021/06/12 06:42:11;;;;;;;1.35;1.30;;;24.30;99.90;;;;;;4952267;28;20204;-67
2021/06/12 06:44:37;;;;;;;1.65;1.55;;;24.30;99.90;;;;;;4968504;28;20200;-68
2021/06/12 06:47:04;;;;;;;1.50;1.30;;;24.30;99.90;;;;;;4964265;28;20205;-66
2021/06/12 06:49:31;;;;;;;1.40;1.30;;;24.40;99.90;;;;;;4970143;28;20228;-67
2021/06/12 06:51:58;;;;;;;1.13;1.13;;;24.50;99.90;;;;;;4972392;28;20655;-66
2021/06/12 06:54:24;;;;;;;1.52;1.10;;;24.80;99.90;;;;;;4982211;28;20239;-67
2021/06/12 06:56:53;;;;;;;1.10;1.10;;;25.10;99.90;;;;;;4976455;28;20215;-67
2021/06/12 06:59:19;;;;;;;1.35;1.25;;;25.20;99.90;;;;;;4954239;28;20209;-67
2021/06/12 07:01:45;;;;;;;1.50;1.40;;;25.20;99.90;;;;;;4971787;28;20212;-67
2021/06/12 07:04:12;;;;;;;1.13;1.08;;;25.30;99.90;;;;;;4971769;28;20215;-68
2021/06/12 07:06:39;;;;;;;1.10;1.10;;;25.30;99.90;;;;;;4972872;28;20200;-66
2021/06/12 07:09:05;;;;;;;0.90;0.90;;;25.30;99.90;;;;;;4955143;28;20208;-66
2021/06/12 07:11:31;;;;;;;1.13;0.90;;;25.20;99.90;;;;;;4972246;28;20244;-67
2021/06/12 07:13:59;;;;;;;1.05;1.05;;;25.10;99.90;;;;;;4984519;28;20274;-67
2021/06/12 07:16:26;;;;;;;1.98;1.45;;;25.10;99.90;;;;;;4983914;28;20246;-66
2021/06/12 07:18:53;;;;;;;1.08;1.08;;;25.10;99.90;;;;;;4972268;28;20231;-67
2021/06/12 07:21:19;;;;;;;1.02;1.02;;;25.20;99.90;;;;;;4972239;28;20824;-69
2021/06/12 07:23:46;;;;;;;1.30;1.25;;;25.20;99.90;;;;;;4960419;28;20566;-66
2021/06/12 07:26:12;;;;;;;1.20;1.20;;;25.30;99.90;;;;;;4979992;28;20291;-67
2021/06/12 07:28:39;;;;;;;1.10;1.10;;;25.30;99.90;;;;;;4971888;28;20570;-66
2021/06/12 07:31:06;;;;;;;1.95;1.17;;;25.30;99.90;;;;;;4970898;28;20208;-67
2021/06/12 07:33:33;;;;;;;1.30;1.20;;;25.30;99.90;;;;;;4990296;28;20581;-67
2021/06/12 07:36:00;;;;;;;1.88;1.42;;;25.30;99.90;;;;;;4949015;28;20264;-67
2021/06/12 07:38:26;;;;;;;1.45;1.38;;;25.30;99.90;;;;;;4971686;28;20254;-67
2021/06/12 07:40:53;;;;;;;2.20;1.27;;;25.40;99.50;;;;;;4973065;28;20288;-66
2021/06/12 07:43:19;;;;;;;1.55;1.45;;;25.30;99.40;;;;;;4974391;28;20221;-67
2021/06/12 07:45:47;;;;;;;1.33;1.30;;;25.30;99.20;;;;;;4954009;28;20292;-66
2021/06/12 07:48:15;;;;;;;3.03;1.48;;;25.10;99.60;;;;;;4971536;28;20279;-67
2021/06/12 07:50:42;;;;;;;1.33;1.30;;;25.10;99.30;;;;;;4953261;28;20653;-67
2021/06/12 07:53:09;;;;;;;1.10;1.00;;;25.00;99.30;;;;;;4971886;28;20216;-67
2021/06/12 07:55:35;;;;;;;1.30;1.30;;;25.00;99.50;;;;;;4954177;28;20752;-67
2021/06/12 07:58:02;;;;;;;1.80;1.70;;;25.00;99.50;;;;;;4971055;28;20259;-67
2021/06/12 08:00:29;;;;;;;1.48;1.48;;;25.00;99.50;;;;;;4953215;28;20204;-65
2021/06/12 08:02:56;;;;;;;1.60;1.50;;;25.10;99.00;;;;;;4969839;28;20228;-66
2021/06/12 08:05:24;;;;;;;1.55;1.45;;;25.10;98.90;;;;;;4962883;28;20296;-66
2021/06/12 08:07:51;;;;;;;1.50;1.40;;;25.10;98.80;;;;;;4971913;28;20550;-67
2021/06/12 08:10:18;;;;;;;1.33;1.23;;;25.10;98.80;;;;;;4970878;28;20224;-65
2021/06/12 08:12:45;;;;;;;1.42;1.33;;;25.00;98.70;;;;;;4970727;28;20271;-66
2021/06/12 08:15:12;;;;;;;1.60;1.50;;;25.00;98.70;;;;;;4970800;28;20251;-66
2021/06/12 08:17:39;;;;;;;1.25;1.23;;;24.90;98.80;;;;;;4971069;28;20200;-67
2021/06/12 08:20:07;;;;;;;1.17;1.17;;;24.80;98.90;;;;;;4952828;28;20205;-67
2021/06/12 08:22:35;;;;;;;1.35;1.35;;;24.80;98.90;;;;;;4969855;28;20204;-67
2021/06/12 08:25:02;;;;;;;1.50;1.40;;;24.70;99.00;;;;;;4952841;28;20215;-66
2021/06/12 08:27:28;;;;;;;1.58;1.50;;;24.60;99.10;;;;;;4970192;28;20200;-66
2021/06/12 08:29:55;;;;;;;1.88;1.40;;;24.60;99.70;;;;;;4970417;28;20216;-66
2021/06/12 08:32:21;;;;;;;1.48;1.30;;;24.40;99.90;;;;;;4978109;28;20204;-66
2021/06/12 08:34:48;;;;;;;1.88;1.77;;;24.30;99.90;;;;;;4972134;28;20224;-66
2021/06/12 08:37:14;;;;;;;2.40;2.17;;;24.20;99.90;;;;;;4960245;28;20236;-64
2021/06/12 08:39:42;;;;;;;2.75;2.33;;;23.90;99.90;;;;;;4952391;28;20801;-66
2021/06/12 08:42:09;;;;;;;2.55;2.13;;;23.50;99.90;;;;;;4972739;28;20579;-67
2021/06/12 08:44:35;;;;;;;2.88;1.80;;;23.00;99.90;;;;;;4965957;28;20238;-68
2021/06/12 08:47:03;;;;;;;1.73;1.50;;;22.70;99.90;;;;;;4969994;28;20283;-67
2021/06/12 08:49:29;;;;;;;1.80;1.70;;;22.50;99.90;;;;;;4970327;28;21496;-66
2021/06/12 08:51:56;;;;;;;2.78;1.95;;;22.40;99.90;;;;;;4969695;28;20224;-67
2021/06/12 08:54:26;;;;;;;2.38;2.17;;;22.30;99.90;;;;;;4970318;28;20234;-66
2021/06/12 08:56:54;;;;;;;3.67;2.60;;;22.20;99.90;;;;;;4953560;28;20223;-67
2021/06/12 08:59:20;;;;;;;2.63;2.25;;;22.20;99.90;;;;;;4980441;28;20224;-67
2021/06/12 09:01:48;;;;;;;2.15;2.05;;;22.20;99.90;;;;;;4965801;28;20870;-67
2021/06/12 09:04:27;;;;;;;1.88;1.77;;;22.10;99.90;;;;;;4965862;28;20188;-66
2021/06/12 09:07:18;;;;;;;1.70;1.60;;;22.20;99.90;;;;;;4967285;28;20571;-66
2021/06/12 09:09:44;;;;;;;1.77;1.67;;;22.20;99.90;;;;;;4955965;28;20204;-66
2021/06/12 09:12:12;;;;;;;1.40;1.40;;;22.20;99.90;;;;;;4964999;28;20283;-67
2021/06/12 09:14:39;;;;;;;1.80;1.70;;;22.30;99.90;;;;;;4958802;28;20252;-67
2021/06/12 09:17:06;;;;;;;1.58;1.52;;;22.40;99.90;;;;;;4965679;28;20711;-66
2021/06/12 09:19:40;;;;;;;1.80;1.70;;;22.40;99.90;;;;;;4966807;28;20231;-65
2021/06/12 09:22:09;;;;;;;1.50;1.40;;;22.40;99.90;;;;;;4966205;28;20555;-65
2021/06/12 09:24:39;;;;;;;1.73;1.63;;;22.50;99.90;;;;;;4966321;28;20284;-65
2021/06/12 09:27:12;;;;;;;1.20;1.20;;;22.60;99.90;;;;;;4949209;28;21045;-64
2021/06/12 09:29:41;;;;;;;2.10;1.20;;;22.70;99.90;;;;;;4966212;28;20210;-65
2021/06/12 09:32:13;;;;;;;1.30;1.30;;;22.70;99.90;;;;;;4964822;28;20236;-66
2021/06/12 09:34:40;;;;;;;1.30;1.20;;;22.80;99.90;;;;;;4965193;28;20231;-66
2021/06/12 09:37:11;;;;;;;1.50;1.40;;;22.90;99.90;;;;;;4960093;28;20315;-66
2021/06/12 09:39:37;;;;;;;1.15;1.15;;;22.90;99.90;;;;;;4970483;28;20299;-66
2021/06/12 09:42:05;;;;;;;1.20;1.20;;;23.00;99.90;;;;;;4965925;28;20323;-67
2021/06/12 09:44:34;;;;;;;1.20;1.20;;;23.00;99.90;;;;;;4965424;28;20291;-68
2021/06/12 09:47:03;;;;;;;1.08;1.08;;;23.00;99.90;;;;;;4965808;28;20689;-68
2021/06/12 09:49:33;;;;;;;1.20;1.20;;;23.00;99.90;;;;;;4965248;28;20729;-67
2021/06/12 09:52:08;;;;;;;0.93;0.93;;;23.30;99.90;;;;;;4966289;28;20706;-68
2021/06/12 09:54:41;;;;;;;1.30;1.30;;;22.90;99.90;;;;;;4977096;28;20286;-67
2021/06/12 09:57:10;;;;;;;1.20;1.10;;;22.80;99.90;;;;;;4966450;28;20682;-67
2021/06/12 09:59:45;;;;;;;1.60;1.50;;;22.70;99.90;;;;;;4947921;28;20212;-67
2021/06/12 10:02:33;;;;;;;1.20;1.20;;;22.70;99.90;;;;;;4962642;28;20650;-67
2021/06/12 10:05:00;;;;;;;1.30;1.20;;;22.70;99.90;;;;;;4964857;28;20203;-67
2021/06/12 10:07:27;;;;;;;1.30;1.30;;;22.70;99.90;;;;;;4970803;28;20202;-67
2021/06/12 10:09:54;;;;;;;1.42;1.33;;;22.70;99.90;;;;;;4968228;28;20204;-66
2021/06/12 10:12:22;;;;;;;1.27;1.27;;;22.80;99.90;;;;;;4970449;28;20197;-67
2021/06/12 10:14:51;;;;;;;1.10;1.10;;;22.80;99.90;;;;;;4979769;28;20223;-66
2021/06/12 10:17:21;;;;;;;1.23;1.23;;;22.90;99.90;;;;;;4969938;28;20610;-67
2021/06/12 10:19:50;;;;;;;1.15;1.15;;;22.90;99.90;;;;;;4963740;28;20303;-64
2021/06/12 10:22:17;;;;;;;1.25;1.15;;;23.00;99.90;;;;;;4954564;28;20418;-64
2021/06/12 10:24:44;;;;;;;1.55;1.40;;;23.00;99.90;;;;;;4978939;28;20228;-63
2021/06/12 10:27:11;;;;;;;1.30;1.30;;;22.90;99.90;;;;;;4987874;28;20346;-66
2021/06/12 10:29:38;;;;;;;1.77;1.35;;;22.80;99.90;;;;;;4972501;28;20196;-66
2021/06/12 10:32:06;;;;;;;1.30;1.30;;;22.70;99.90;;;;;;4971004;28;20832;-67
2021/06/12 10:34:35;;;;;;;1.65;1.55;;;22.60;99.90;;;;;;4972292;28;20255;-66
2021/06/12 10:37:03;;;;;;;1.55;1.45;;;22.50;99.90;;;;;;4975796;28;20229;-67
2021/06/12 10:39:32;;;;;;;2.97;1.50;;;22.40;99.90;;;;;;4972642;28;20643;-66
2021/06/12 10:42:21;;;;;;;1.27;1.27;;;22.30;99.90;;;;;;4952618;28;20227;-65
2021/06/12 10:44:50;;;;;;;1.40;1.40;;;22.30;99.90;;;;;;4911828;29;20211;-67
2021/06/12 10:47:38;;;;;;;1.20;1.20;;;22.20;99.90;;;;;;4911355;29;20210;-68
2021/06/12 10:50:34;;;;;;;1.20;1.20;;;22.20;99.90;;;;;;4910022;29;20749;-66
2021/06/12 10:53:21;;;;;;;1.60;1.50;;;22.10;99.90;;;;;;4910462;29;20210;-66
2021/06/12 10:55:51;;;;;;;1.27;1.27;;;21.80;99.90;;;;;;4910809;29;20229;-66
2021/06/12 10:58:56;;;;;;;2.13;1.60;;;21.70;99.90;;;;;;4913261;29;20207;-65
2021/06/12 11:01:24;;;;;;;1.50;1.42;;;21.60;99.90;;;;;;4911507;29;20321;-67
2021/06/12 11:04:02;;;;;;;1.52;1.42;;;21.50;99.90;;;;;;4913257;29;20365;-67
2021/06/12 11:06:44;;;;;;;1.27;1.23;;;21.40;99.90;;;;;;4912185;29;20223;-64
2021/06/12 11:09:38;;;;;;;2.00;1.40;;;21.30;99.90;;;;;;4916780;29;20245;-67
2021/06/12 11:12:30;;;;;;;1.30;1.20;;;21.10;99.90;;;;;;4911957;29;20294;-67
2021/06/12 11:14:59;;;;;;;1.38;1.27;;;21.00;99.90;;;;;;4895780;29;20676;-67
2021/06/12 11:17:26;;;;;;;1.25;1.13;;;20.90;99.90;;;;;;4911477;29;20206;-67
2021/06/12 11:20:26;;;;;;;1.00;0.90;;;20.80;99.90;;;;;;4912421;29;20203;-68
2021/06/12 11:23:00;;;;;;;0.80;0.80;;;20.70;99.90;;;;;;4961563;28;20236;-66
2021/06/12 11:25:55;;;;;;;1.17;1.08;;;20.70;99.90;;;;;;4954573;28;20208;-67
2021/06/12 11:28:31;;;;;;;1.10;1.00;;;20.70;99.90;;;;;;4954281;28;20501;-67
2021/06/12 11:31:30;;;;;;;1.10;1.00;;;20.70;99.90;;;;;;4954092;28;20291;-67
2021/06/12 11:34:14;;;;;;;0.70;0.70;;;20.70;99.90;;;;;;4959292;28;20682;-67
2021/06/12 11:36:41;;;;;;;0.80;0.80;;;20.60;99.90;;;;;;4983911;28;20280;-66
2021/06/12 11:39:11;;;;;;;1.00;0.90;;;20.60;99.90;;;;;;4980515;28;20198;-67
2021/06/12 11:41:37;;;;;;;0.80;0.80;;;20.60;99.90;;;;;;4970687;28;20192;-67
2021/06/12 11:44:05;;;;;;;0.93;0.88;;;20.70;99.90;;;;;;4971703;28;20228;-68
2021/06/12 11:46:34;;;;;;;1.45;1.40;;;20.70;99.90;;;;;;4972487;28;20192;-70
2021/06/12 11:49:05;;;;;;;1.42;1.33;;;20.80;99.90;;;;;;4977628;28;20557;-70
2021/06/12 11:51:33;;;;;;;2.97;1.67;;;20.80;99.90;;;;;;4968243;28;20205;-69
2021/06/12 11:54:10;;;;;;;0.90;0.90;;;20.80;99.90;;;;;;4963810;28;20234;-69
2021/06/12 11:56:38;;;;;;;1.20;1.20;;;20.70;99.90;;;;;;4978136;28;20601;-69
2021/06/12 11:59:06;;;;;;;2.25;1.13;;;20.80;99.90;;;;;;4967043;28;20307;-71
2021/06/12 12:01:44;;;;;;;0.80;0.80;;;20.70;99.90;;;;;;4974765;28;20298;-68
2021/06/12 12:04:14;;;;;;;0.90;0.90;;;20.70;99.90;;;;;;4957154;28;20796;-69
2021/06/12 12:06:49;;;;;;;1.10;1.10;;;20.70;99.90;;;;;;4950901;28;20216;-70
2021/06/12 12:09:28;;;;;;;1.15;1.10;;;20.80;99.90;;;;;;4966002;28;21822;-70
2021/06/12 12:11:57;;;;;;;2.60;1.10;;;20.90;99.90;;;;;;4968757;28;20204;-69
2021/06/12 12:14:30;;;;;;;1.25;1.15;;;21.10;99.90;;;;;;4957181;28;20236;-70
2021/06/12 12:16:57;;;;;;;1.38;1.08;;;21.10;99.90;;;;;;4968945;28;20201;-71
2021/06/12 12:19:24;;;;;;;0.80;0.80;;;21.20;99.90;;;;;;4967296;28;20197;-69
2021/06/12 12:21:53;;;;;;;0.80;0.80;;;21.30;99.90;;;;;;4951498;28;20662;-71
2021/06/12 12:24:22;;;;;;;1.30;0.93;;;21.40;99.90;;;;;;4968367;28;20251;-71
2021/06/12 12:26:59;;;;;;;1.17;1.15;;;21.50;99.90;;;;;;4962744;28;20287;-70
2021/06/12 12:29:27;;;;;;;1.10;1.10;;;21.60;99.90;;;;;;4954155;28;20625;-68
2021/06/12 12:31:56;;;;;;;1.02;1.02;;;21.60;99.90;;;;;;4966785;28;20196;-71
2021/06/12 12:34:31;;;;;;;0.90;0.90;;;21.60;99.90;;;;;;4969336;28;20356;-70
2021/06/12 12:36:58;;;;;;;1.30;1.20;;;21.60;99.90;;;;;;4960998;28;20339;-70
2021/06/12 12:39:35;;;;;;;2.90;1.10;;;21.60;99.90;;;;;;4968614;28;20236;-70
2021/06/12 12:42:04;;;;;;;0.95;0.95;;;21.60;99.90;;;;;;4966032;28;20259;-70
2021/06/12 12:44:30;;;;;;;2.30;1.45;;;21.60;99.90;;;;;;4963159;28;20234;-71
2021/06/12 12:46:57;;;;;;;1.20;1.10;;;21.60;99.90;;;;;;4960852;28;20661;-71
2021/06/12 12:49:25;;;;;;;1.52;1.27;;;21.50;99.90;;;;;;4966322;28;20196;-71
2021/06/12 12:51:54;;;;;;;1.42;1.20;;;21.50;99.90;;;;;;4952940;28;20208;-67
2021/06/12 12:54:21;;;;;;;1.30;1.20;;;21.50;99.90;;;;;;4971270;28;20248;-68
2021/06/12 12:56:50;;;;;;;1.30;1.20;;;21.50;99.90;;;;;;4969254;28;20812;-68
2021/06/12 12:59:32;;;;;;;1.60;1.50;;;21.50;99.90;;;;;;4978668;28;20467;-64